Latest Weather Observations for Sydney Olympic Park

IDN60801

Issued at 2:05 pm EST Tuesday 2 September 2014 (issued every 30 minutes, with the page automatically refreshed every 10 minutes)

About weather observations | Map of weather stations | Latest weather observations for NSW | Other Formats
Station Details ID: 066212 Name: SYDNEY OLYMPIC PARK AWS (ARCHERY CENTRE) Lat: -33.83 Lon: 151.07 Height: 4.0 m
Data from the previous 72 hours. | See also: Recent months at Sydney Olympic Park
Date/Time
EST
Temp
°C
App
Temp
°C
Dew
Point
Rel
Hum
%
Delta-T
°C
Wind Press
QNH
hPa
Press
MSL
hPa
Rain
since 9 am
mm
Dir
 
Spd
km/h
Gust
km/h
Spd
kts
Gust
kts
02/02:00pm 17.1 13.2 7.2 52 4.9 SSW 17 30 9 16 - - 0.0
02/01:30pm 16.2 11.3 6.9 54 4.6 SW 22 35 12 19 - - 0.0
02/01:00pm 17.2 13.2 6.7 50 5.2 WSW 17 26 9 14 - - 0.0
02/12:30pm 16.2 13.0 8.4 60 4.0 W 15 20 8 11 - - 0.0
02/12:00pm 16.2 12.1 7.7 57 4.3 W 19 37 10 20 - - 0.0
02/11:30am 16.6 13.7 8.3 58 4.2 W 13 24 7 13 - - 0.0
02/11:00am 16.6 13.7 8.3 58 4.2 SW 13 24 7 13 - - 0.0
02/10:30am 16.1 12.2 7.1 55 4.5 SSW 17 26 9 14 - - 0.0
02/10:00am 17.6 15.4 7.9 53 4.9 WSW 9 17 5 9 - - 0.0
02/09:30am 17.0 14.9 8.4 57 4.4 W 9 15 5 8 - - 0.0
02/09:00am 15.7 15.4 10.0 69 3.0 W 2 7 1 4 - - 0.0
02/08:30am 14.8 15.4 11.8 82 1.6 CALM 0 0 0 0 - - 0.0
02/08:00am 14.0 12.7 9.8 76 2.2 NW 7 9 4 5 - - 0.0
02/07:30am 13.5 13.6 10.1 80 1.8 CALM 0 0 0 0 - - 0.0
02/07:00am 14.1 12.5 8.7 70 2.7 NNW 7 9 4 5 - - 0.0
02/06:30am 13.6 12.0 8.9 73 2.4 NW 7 9 4 5 - - 0.0
02/06:00am 14.8 13.2 7.8 63 3.5 WNW 6 11 3 6 - - 0.0
02/05:30am 15.4 13.2 7.7 60 3.8 W 9 15 5 8 - - 0.0
02/05:00am 15.9 13.2 7.4 57 4.2 WSW 11 22 6 12 - - 0.0
02/04:30am 16.4 13.3 7.3 55 4.5 SW 13 20 7 11 - - 0.0
02/04:00am 16.4 14.3 8.4 59 4.1 W 9 20 5 11 - - 0.0
02/03:30am 14.7 13.0 9.7 72 2.6 WNW 9 13 5 7 - - 0.0
02/03:00am 15.2 14.0 9.6 69 2.9 WSW 6 9 3 5 - - 0.0
02/02:30am 15.9 14.8 8.6 62 3.7 ENE 4 7 2 4 - - 0.0
02/02:00am 15.3 15.5 10.5 73 2.5 CALM 0 6 0 3 - - 0.0
02/01:30am 13.5 13.5 11.2 86 1.2 E 2 7 1 4 - - 0.0
02/01:00am 14.9 14.9 11.3 79 1.9 NNE 2 7 1 4 - - 0.0
02/12:30am 15.0 13.6 9.4 69 2.9 N 7 9 4 5 - - 0.0
02/12:00am 13.6 13.1 10.6 82 1.6 N 4 7 2 4 - - 0.0
 
Date/Time
EST
Temp
°C
App
Temp
°C
Dew
Point
Rel
Hum
%
Delta-T
°C
Wind Press
QNH
hPa
Press
MSL
hPa
Rain
since 9 am
mm
Dir
 
Spd
km/h
Gust
km/h
Spd
kts
Gust
kts
01/11:30pm 14.0 14.0 11.2 83 1.5 WNW 2 6 1 3 - - 0.0
01/11:00pm 14.1 14.0 10.7 80 1.8 N 2 7 1 4 - - 0.0
01/10:30pm 14.3 14.5 10.5 78 2.0 CALM 0 0 0 0 - - 0.0
01/10:00pm 14.8 13.8 10.4 75 2.3 N 6 7 3 4 - - 0.0
01/09:30pm 15.3 13.9 9.4 68 3.0 NNW 7 11 4 6 - - 0.0
01/09:00pm 15.8 14.5 9.9 68 3.1 NW 7 11 4 6 - - 0.0
01/08:30pm 15.8 13.7 9.7 67 3.2 NNW 11 15 6 8 - - 0.0
01/08:00pm 15.4 13.6 11.0 75 2.3 NNW 11 15 6 8 - - 0.0
01/07:30pm 14.6 13.4 11.7 83 1.6 NNW 9 11 5 6 - - 0.0
01/07:00pm 15.6 15.3 11.6 77 2.2 NNW 4 9 2 5 - - 0.0
01/06:30pm 17.0 16.0 10.4 65 3.5 NNW 6 7 3 4 - - 0.0
01/06:00pm 18.9 17.5 9.7 55 4.9 NNE 7 11 4 6 - - 0.0
01/05:30pm 19.9 18.2 10.0 53 5.3 NE 9 15 5 8 - - 0.0
01/05:00pm 21.4 19.8 10.3 49 6.0 NNE 9 17 5 9 - - 0.0
01/04:30pm 22.5 20.8 8.2 40 7.5 NNE 7 15 4 8 - - 0.0
01/04:00pm 22.8 21.0 9.6 43 7.1 N 9 15 5 8 - - 0.0
01/03:30pm 22.5 20.5 10.3 46 6.7 N 11 17 6 9 - - 0.0
01/03:00pm 24.0 21.9 9.6 40 7.8 N 11 19 6 10 - - 0.0
01/02:30pm 23.4 21.1 9.0 40 7.7 NNW 11 17 6 9 - - 0.0
01/02:00pm 24.1 21.3 6.8 33 9.0 NNW 11 20 6 11 - - 0.0
01/01:30pm 23.3 21.2 6.6 34 8.6 NW 7 11 4 6 - - 0.0
01/01:00pm 22.9 20.9 8.6 40 7.6 NW 9 17 5 9 - - 0.0
01/12:30pm 22.9 20.1 7.0 36 8.2 WNW 11 19 6 10 - - 0.0
01/12:00pm 22.1 20.0 8.2 41 7.3 WNW 9 15 5 8 - - 0.0
01/11:30am 21.6 19.9 8.5 43 6.9 NNW 7 13 4 7 - - 0.0
01/11:00am 20.6 19.1 10.4 52 5.5 NNW 9 15 5 8 - - 0.0
01/10:30am 19.1 19.0 13.3 69 3.3 NW 6 11 3 6 - - 0.0
01/10:00am 17.7 17.4 13.4 76 2.4 NW 7 13 4 7 - - 0.0
01/09:30am 15.2 14.2 12.3 83 1.6 WNW 9 13 5 7 - - 0.0
01/09:00am 14.2 13.1 11.9 86 1.2 NW 9 15 5 8 - - 0.0
01/08:30am 13.5 12.1 12.2 92 0.7 NW 11 15 6 8 - - 0.0
01/08:00am 12.5 11.1 12.2 98 0.2 WNW 11 15 6 8 - - 0.0
01/07:30am 11.6 10.3 11.3 98 0.2 WNW 9 13 5 7 - - 0.0
01/07:19am 11.2 9.8 10.9 98 0.2 WNW 9 11 5 6 - - 0.0
01/07:00am 10.0 10.0 9.7 98 0.2 CALM 0 0 0 0 - - 0.0
01/06:30am 9.5 9.3 9.2 98 0.1 CALM 0 6 0 3 - - 0.0
01/06:00am 10.0 8.8 9.7 98 0.2 WNW 6 9 3 5 - - 0.0
01/05:39am 10.4 9.1 10.1 98 0.2 WNW 7 9 4 5 - - 0.0
01/05:30am 10.5 8.9 10.2 98 0.2 WNW 9 11 5 6 - - 0.0
01/05:00am 10.0 8.3 9.7 98 0.2 WNW 9 11 5 6 - - 0.0
01/04:30am 9.0 7.0 8.7 98 0.1 NW 9 11 5 6 - - 0.0
01/04:00am 9.1 8.8 8.8 98 0.1 CALM 0 0 0 0 - - 0.0
01/03:30am 9.5 9.3 9.2 98 0.1 CALM 0 0 0 0 - - 0.0
01/03:00am 9.4 9.2 9.1 98 0.1 CALM 0 0 0 0 - - 0.0
01/02:30am 10.0 10.0 9.7 98 0.2 CALM 0 0 0 0 - - 0.0
01/02:09am 10.2 10.2 9.9 98 0.2 CALM 0 0 0 0 - - 0.0
01/02:00am 10.0 10.0 9.7 98 0.2 CALM 0 0 0 0 - - 0.0
01/01:30am 10.3 10.4 10.0 98 0.2 CALM 0 0 0 0 - - 0.0
01/01:20am 10.4 10.5 10.1 98 0.2 CALM 0 0 0 0 - - 0.0
01/01:01am 10.7 10.9 10.4 98 0.2 CALM 0 0 0 0 - - 0.0
01/01:00am 10.7 10.9 10.4 98 0.2 CALM 0 0 0 0 - - 0.0
01/12:47am 10.8 11.0 10.5 98 0.2 CALM 0 0 0 0 - - 0.0
01/12:30am 11.0 11.2 10.7 98 0.2 CALM 0 0 0 0 - - 0.0
01/12:29am 11.0 11.2 10.7 98 0.2 CALM 0 0 0 0 - - 0.0
01/12:18am 11.0 11.2 10.7 98 0.2 CALM 0 0 0 0 - - 0.0
01/12:00am 11.2 11.5 10.9 98 0.2 CALM 0 0 0 0 - - 0.0
 
Date/Time
EST
Temp
°C
App
Temp
°C
Dew
Point
Rel
Hum
%
Delta-T
°C
Wind Press
QNH
hPa
Press
MSL
hPa
Rain
since 9 am
mm
Dir
 
Spd
km/h
Gust
km/h
Spd
kts
Gust
kts
31/11:53pm 11.3 11.6 11.0 98 0.2 CALM 0 0 0 0 - - 0.0
31/11:30pm 11.3 11.6 11.0 98 0.2 CALM 0 0 0 0 - - 0.0
31/11:00pm 11.2 11.5 10.9 98 0.2 CALM 0 0 0 0 - - 0.0
31/10:30pm 11.5 11.9 11.2 98 0.2 CALM 0 0 0 0 - - 0.0
31/10:00pm 11.5 11.9 11.2 98 0.2 CALM 0 0 0 0 - - 0.0
31/09:30pm 11.7 12.1 11.4 98 0.2 CALM 0 0 0 0 - - 0.0
31/09:00pm 12.0 12.2 11.7 98 0.2 E 2 7 1 4 - - 0.0
31/08:30pm 12.5 13.1 12.0 97 0.3 CALM 0 0 0 0 - - 0.0
31/08:00pm 13.2 13.6 12.6 96 0.3 E 2 6 1 3 - - 0.0
31/07:30pm 14.3 14.2 13.3 94 0.6 E 6 9 3 5 - - 0.0
31/07:00pm 15.3 15.2 13.3 88 1.1 E 6 9 3 5 - - 0.0
31/06:30pm 16.1 15.2 13.8 86 1.3 E 11 15 6 8 - - 0.0
31/06:00pm 16.5 15.1 13.4 82 1.7 E 13 17 7 9 - - 0.0
31/05:30pm 17.1 15.5 12.8 76 2.4 E 13 20 7 11 - - 0.0
31/05:00pm 17.9 16.2 12.6 71 2.9 E 13 20 7 11 - - 0.0
31/04:30pm 18.6 16.6 12.6 68 3.4 E 15 20 8 11 - - 0.0
31/04:00pm 18.8 16.3 12.3 66 3.6 E 17 24 9 13 - - 0.0
31/03:30pm 19.5 17.2 13.0 66 3.7 E 17 24 9 13 - - 0.0
31/03:00pm 20.1 17.7 12.8 63 4.1 SE 17 22 9 12 - - 0.0
31/02:30pm 21.5 20.5 10.9 51 5.8 SW 7 11 4 6 - - 0.0
31/02:00pm 21.8 21.1 12.1 54 5.5 NNW 7 13 4 7 - - 0.0
31/01:30pm 21.1 20.6 12.0 56 5.1 SW 6 13 3 7 - - 0.0
31/01:00pm 20.7 20.3 12.9 61 4.4 W 7 13 4 7 - - 0.0
31/12:30pm 18.8 17.3 10.4 58 4.5 S 9 17 5 9 - - 0.0
31/12:00pm 18.9 18.0 11.2 61 4.2 W 7 13 4 7 - - 0.0
31/11:30am 18.9 17.9 12.2 65 3.7 W 9 13 5 7 - - 0.0
31/11:00am 18.5 18.2 11.6 64 3.8 W 4 9 2 5 - - 0.0
31/10:30am 17.7 16.8 11.5 67 3.4 WSW 7 15 4 8 - - 0.0
31/10:00am 17.1 15.5 11.4 69 3.1 W 11 19 6 10 - - 0.0
31/09:30am 16.1 14.6 10.6 70 2.9 SW 9 17 5 9 - - 0.0
31/09:00am 15.2 12.9 10.6 74 2.4 WSW 13 17 7 9 - - 1.8
31/08:30am 14.5 12.7 10.7 78 2.0 W 11 17 6 9 - - 1.8
31/08:00am 13.5 11.2 10.3 81 1.7 WSW 13 24 7 13 - - 1.8
31/07:30am 12.7 10.7 10.2 85 1.3 WSW 11 17 6 9 - - 1.8
31/07:00am 12.3 10.7 10.2 87 1.1 WSW 9 17 5 9 - - 1.8
31/06:30am 11.7 10.1 10.1 90 0.8 W 9 17 5 9 - - 1.8
31/06:00am 11.6 10.3 10.0 90 0.8 W 7 13 4 7 - - 1.8
31/05:30am 11.7 10.4 10.1 90 0.8 WSW 7 13 4 7 - - 1.8
31/05:00am 11.6 10.3 10.0 90 0.8 W 7 11 4 6 - - 1.8
31/04:30am 11.7 10.5 10.4 92 0.7 W 7 9 4 5 - - 1.8
31/04:00am 11.7 10.6 10.6 93 0.6 W 7 13 4 7 - - 1.8
31/03:30am 11.1 10.6 10.6 97 0.3 W 4 9 2 5 - - 1.8
31/03:00am 10.2 9.4 9.6 96 0.3 W 4 7 2 4 - - 1.8
31/02:30am 11.1 11.1 9.9 92 0.6 CALM 0 0 0 0 - - 1.8
31/02:00am 12.3 11.6 10.2 87 1.1 W 4 7 2 4 - - 1.8
31/01:30am 13.1 12.6 10.6 85 1.3 WSW 4 11 2 6 - - 1.8
31/01:00am 13.5 12.4 10.7 83 1.5 WSW 7 11 4 6 - - 1.8
31/12:30am 13.7 12.7 10.9 83 1.5 W 7 11 4 6 - - 1.8
31/12:00am 13.7 12.7 10.9 83 1.5 WSW 7 11 4 6 - - 1.8
 
Date/Time
EST
Temp
°C
App
Temp
°C
Dew
Point
Rel
Hum
%
Delta-T
°C
Wind Press
QNH
hPa
Press
MSL
hPa
Rain
since 9 am
mm
Dir
 
Spd
km/h
Gust
km/h
Spd
kts
Gust
kts
30/11:30pm 14.0 13.1 11.2 83 1.5 SW 7 15 4 8 - - 1.8
30/11:00pm 14.2 12.8 11.0 81 1.7 WSW 9 13 5 7 - - 1.8
30/10:30pm 14.3 13.3 11.1 81 1.7 WSW 7 13 4 7 - - 1.8
30/10:00pm 14.4 13.7 11.4 82 1.6 SW 6 9 3 5 - - 1.8
30/09:30pm 14.7 13.4 11.3 80 1.8 SSW 9 19 5 10 - - 1.8
30/09:00pm 14.8 13.2 11.4 80 1.8 SW 11 17 6 9 - - 1.8
30/08:30pm 14.8 14.0 11.8 82 1.6 SW 7 13 4 7 - - 1.8
30/08:00pm 14.8 13.7 11.9 83 1.6 SW 9 13 5 7 - - 1.8
30/07:30pm 14.9 13.4 12.0 83 1.6 SW 11 17 6 9 - - 1.8
30/07:00pm 15.1 13.3 12.2 83 1.6 SSW 13 20 7 11 - - 1.8
30/06:30pm 15.1 12.9 12.2 83 1.6 SSW 15 22 8 12 - - 1.8
30/06:00pm 15.1 13.9 12.8 86 1.3 SW 11 17 6 9 - - 1.8
30/05:30pm 14.9 13.3 12.8 87 1.2 SSW 13 22 7 12 - - 1.8
30/05:00pm 15.0 13.2 13.2 89 1.0 S 15 30 8 16 - - 1.8
30/04:30pm 16.0 14.0 12.6 80 1.9 SSW 15 26 8 14 - - 1.6
30/04:00pm 16.0 13.6 12.7 81 1.8 SSW 17 28 9 15 - - 1.6
30/03:30pm 16.6 15.2 13.5 82 1.7 SSW 13 22 7 12 - - 1.6
30/03:00pm 15.9 14.1 13.4 85 1.4 SSW 15 26 8 14 - - 1.6
30/02:30pm 15.9 13.2 12.8 82 1.7 S 19 30 10 16 - - 1.6

Other Formats:

Comma delimited format used in spreadsheet applications
http://www.bom.gov.au/fwo/IDN60801/IDN60801.95765.axf

JavaScript Object Notation format (JSON) in row-major order
http://www.bom.gov.au/fwo/IDN60801/IDN60801.95765.json